Time;durP1;ratioP1;P1;durP2;ratioP2;P2;SDS_P1;SDS_P2;PMS_P1;PMS_P2;Temp;Humidity;BMP_temperature;BMP_pressure;BME280_temperature;BME280_humidity;BME280_pressure;Samples;Min_cycle;Max_cycle;Signal;HPM_P1;HPM_P2
2022/05/16 00:01:09;;;;;;;0.95;0.40;;;;;;;21.85;34.79;101177.78;16138957;19;130195;-50
2022/05/16 00:06:30;;;;;;;1.55;0.30;;;;;;;21.84;34.30;101171.38;16138726;19;129678;-49
2022/05/16 00:11:52;;;;;;;1.67;0.50;;;;;;;21.85;34.57;101177.78;16140828;19;129526;-48
2022/05/16 00:17:14;;;;;;;1.85;0.47;;;;;;;21.83;34.53;101170.53;16136499;19;129663;-52
2022/05/16 00:22:36;;;;;;;1.02;0.60;;;;;;;21.84;34.83;101165.81;16135944;19;129853;-48
2022/05/16 00:27:58;;;;;;;0.65;0.40;;;;;;;21.81;34.79;101156.03;16140231;19;130718;-51
2022/05/16 00:33:19;;;;;;;2.05;0.75;;;;;;;21.81;34.80;101161.59;16138331;19;129894;-53
2022/05/16 00:38:41;;;;;;;0.70;0.40;;;;;;;21.81;34.88;101155.19;16138163;19;129082;-48
2022/05/16 00:44:03;;;;;;;0.63;0.52;;;;;;;21.80;34.55;101171.06;16134641;19;130651;-50
2022/05/16 00:49:28;;;;;;;1.45;0.60;;;;;;;21.80;34.54;101159.91;16133560;19;130519;-47
2022/05/16 00:54:54;;;;;;;0.90;0.47;;;;;;;21.79;34.67;101169.38;16134140;19;130782;-52
2022/05/16 01:00:22;;;;;;;1.10;0.40;;;;;;;21.80;34.76;101162.69;16132474;19;130111;-50
2022/05/16 01:05:45;;;;;;;0.73;0.30;;;;;;;21.79;34.81;101158.22;16128674;19;130018;-49
2022/05/16 01:11:10;;;;;;;0.70;0.30;;;;;;;21.79;34.64;101155.44;16134335;19;130312;-53
2022/05/16 01:16:31;;;;;;;1.10;0.40;;;;;;;21.76;35.08;101158.78;16132500;19;131193;-53
2022/05/16 01:21:58;;;;;;;0.55;0.40;;;;;;;21.77;34.62;101160.47;16132481;19;130451;-53
2022/05/16 01:27:21;;;;;;;0.73;0.40;;;;;;;21.77;35.15;101146.53;16132628;19;130019;-52
2022/05/16 01:32:42;;;;;;;0.40;0.30;;;;;;;21.76;35.20;101144.00;16132616;19;130436;-51
2022/05/16 01:38:21;;;;;;;0.30;0.25;;;;;;;21.74;35.17;101138.69;16132134;19;130070;-53
2022/05/16 01:43:51;;;;;;;0.88;0.43;;;;;;;21.75;34.93;101139.53;16130317;19;130437;-51
2022/05/16 01:49:13;;;;;;;0.55;0.30;;;;;;;21.73;34.98;101131.44;16132656;19;132045;-53
2022/05/16 01:54:35;;;;;;;0.77;0.30;;;;;;;21.72;35.02;101129.75;16133860;19;130221;-52
2022/05/16 01:59:56;;;;;;;0.85;0.40;;;;;;;21.72;35.27;101121.41;16130652;19;130255;-52
2022/05/16 02:05:22;;;;;;;0.85;0.32;;;;;;;21.72;34.81;101123.38;16129572;19;129883;-52
2022/05/16 02:10:45;;;;;;;0.90;0.70;;;;;;;21.71;35.41;101130.84;16132122;19;130330;-52
2022/05/16 02:16:08;;;;;;;1.75;0.32;;;;;;;21.71;35.05;101116.94;16125166;19;130147;-51
2022/05/16 02:27:12;;;;;;;0.60;0.20;;;;;;;21.70;34.98;101123.59;16128688;19;131854;-53
2022/05/16 02:32:34;;;;;;;0.82;0.30;;;;;;;21.69;34.89;101130.28;16128122;19;130355;-53
2022/05/16 02:37:58;;;;;;;0.85;0.30;;;;;;;21.67;35.36;101127.78;16129444;19;130664;-48
2022/05/16 02:43:20;;;;;;;1.90;0.70;;;;;;;21.67;35.06;101122.19;16127128;19;129963;-52
2022/05/16 02:48:42;;;;;;;1.85;0.50;;;;;;;21.69;35.26;101123.88;16128373;19;129653;-52
2022/05/16 02:54:04;;;;;;;0.65;0.40;;;;;;;21.68;35.03;101117.47;16128702;19;130431;-51
2022/05/16 02:59:27;;;;;;;1.83;0.35;;;;;;;21.68;35.08;101114.66;16130439;19;131390;-49
2022/05/16 03:04:49;;;;;;;1.40;0.43;;;;;;;21.67;35.31;101105.50;16119235;19;130678;-51
2022/05/16 03:10:15;;;;;;;2.50;0.55;;;;;;;21.66;35.27;101100.19;16126734;19;131520;-52
2022/05/16 03:15:37;;;;;;;1.45;0.75;;;;;;;21.66;35.08;101091.84;16132419;19;130256;-51
2022/05/16 03:20:59;;;;;;;1.80;0.57;;;;;;;21.66;35.30;101102.97;16145822;19;129407;-51
2022/05/16 03:26:20;;;;;;;0.88;0.60;;;;;;;21.65;35.55;101112.44;16140134;19;130542;-48
2022/05/16 03:31:42;;;;;;;1.95;0.50;;;;;;;21.64;35.28;101108.78;16144825;19;130188;-50
2022/05/16 03:37:04;;;;;;;1.50;0.60;;;;;;;21.64;35.15;101116.31;16145183;19;130468;-51
2022/05/16 03:42:26;;;;;;;0.43;0.30;;;;;;;21.63;35.27;101114.63;16142662;19;129727;-50
2022/05/16 03:47:48;;;;;;;1.15;0.47;;;;;;;21.62;35.10;101111.00;16142979;19;129693;-48
2022/05/16 03:53:10;;;;;;;0.65;0.40;;;;;;;21.62;35.36;101107.38;16144398;19;129739;-52
2022/05/16 03:58:32;;;;;;;1.48;0.63;;;;;;;21.62;35.51;101112.94;16141771;19;130435;-51
2022/05/16 04:03:55;;;;;;;3.10;0.63;;;;;;;21.60;35.34;101110.41;16140199;19;129960;-50
2022/05/16 04:09:16;;;;;;;1.15;0.40;;;;;;;21.59;35.68;101105.13;16135671;19;129763;-47
2022/05/16 04:14:38;;;;;;;2.67;0.45;;;;;;;21.60;35.65;101120.72;16140937;19;129851;-49
2022/05/16 04:20:00;;;;;;;0.40;0.30;;;;;;;21.58;35.70;101118.22;16139323;19;129775;-51
2022/05/16 04:25:22;;;;;;;0.55;0.32;;;;;;;21.60;35.48;101127.13;16136832;19;129687;-47
2022/05/16 04:30:48;;;;;;;1.20;0.47;;;;;;;21.58;35.46;101126.56;16141761;19;130004;-52
2022/05/16 04:36:10;;;;;;;1.17;0.40;;;;;;;21.58;35.33;101118.22;16143308;19;130005;-55
2022/05/16 04:47:11;;;;;;;1.00;0.45;;;;;;;21.56;35.56;101125.97;16136760;19;130411;-54
2022/05/16 04:52:33;;;;;;;0.70;0.38;;;;;;;21.55;35.50;101134.56;16139221;19;129515;-52
2022/05/16 04:57:57;;;;;;;1.27;0.60;;;;;;;21.55;35.29;101140.13;16137068;19;130378;-51
2022/05/16 05:03:18;;;;;;;4.93;0.73;;;;;;;21.56;35.75;101164.09;16133671;19;130466;-52
2022/05/16 05:08:40;;;;;;;1.70;0.40;;;;;;;21.54;35.48;101166.31;16135310;19;129819;-53
2022/05/16 05:19:43;;;;;;;0.47;0.45;;;;;;;21.53;35.76;101184.94;16128810;19;130229;-54
2022/05/16 05:25:05;;;;;;;0.77;0.40;;;;;;;21.52;35.38;101180.47;16131411;19;130464;-53
2022/05/16 05:30:27;;;;;;;17.90;0.90;;;;;;;21.53;35.97;101184.94;16137132;19;129600;-53
2022/05/16 05:35:48;;;;;;;11.63;0.82;;;;;;;21.52;35.66;101209.19;16136143;19;130393;-52
2022/05/16 05:41:11;;;;;;;3.00;0.55;;;;;;;21.53;35.79;101204.44;16116088;19;129489;-53
2022/05/16 05:46:38;;;;;;;9.57;0.60;;;;;;;21.56;35.81;101212.28;16121476;19;129409;-54
2022/05/16 05:51:59;;;;;;;4.90;1.00;;;;;;;21.58;35.90;101214.78;16130872;19;132137;-53
2022/05/16 05:57:21;;;;;;;3.90;1.08;;;;;;;21.58;36.03;101217.56;16143965;19;129513;-54
2022/05/16 06:02:43;;;;;;;9.40;1.33;;;;;;;21.59;36.10;101222.03;16131978;19;132115;-54
2022/05/16 06:08:05;;;;;;;11.02;1.67;;;;;;;21.60;36.77;101223.72;16143092;19;129300;-53
2022/05/16 06:13:28;;;;;;;9.52;1.67;;;;;;;21.61;36.79;101233.78;16145567;19;129212;-53
2022/05/16 06:18:50;;;;;;;7.15;1.38;;;;;;;21.61;36.62;101233.78;16141608;19;129323;-52
2022/05/16 06:29:52;;;;;;;7.90;1.77;;;;;;;21.63;37.17;101231.56;16144837;19;129562;-51
2022/05/16 06:35:15;;;;;;;10.38;1.70;;;;;;;21.67;36.83;101221.56;16145141;19;129384;-53
2022/05/16 06:40:40;;;;;;;8.27;1.88;;;;;;;21.75;36.74;101221.13;16139839;19;128950;-54
2022/05/16 06:46:02;;;;;;;8.20;1.50;;;;;;;21.78;36.90;101228.97;16136245;19;128886;-51
2022/05/16 06:51:24;;;;;;;5.80;1.50;;;;;;;21.80;37.36;101242.63;16137966;19;129424;-53
2022/05/16 06:56:46;;;;;;;2.67;1.20;;;;;;;21.88;37.04;101246.91;16134665;19;129717;-51
2022/05/16 07:02:08;;;;;;;6.78;1.30;;;;;;;21.95;36.87;101250.31;16139741;19;128985;-52
2022/05/16 07:07:29;;;;;;;8.57;1.70;;;;;;;22.03;37.08;101249.84;16133212;19;129695;-52
2022/05/16 07:12:51;;;;;;;2.75;1.40;;;;;;;22.11;37.01;101254.97;16139070;19;128937;-49
2022/05/16 07:18:13;;;;;;;3.30;1.33;;;;;;;22.17;36.64;101252.22;16135479;19;130037;-51
2022/05/16 07:23:35;;;;;;;3.00;1.50;;;;;;;22.22;36.86;101253.13;16137812;19;129115;-51
2022/05/16 07:28:56;;;;;;;3.05;1.10;;;;;;;22.27;36.53;101267.13;16137313;19;129054;-50
2022/05/16 07:34:18;;;;;;;6.60;1.42;;;;;;;22.32;36.49;101266.34;16137439;19;129566;-51
2022/05/16 07:39:40;;;;;;;2.33;1.30;;;;;;;22.36;36.31;101264.72;16137392;19;128903;-52
2022/05/16 07:45:04;;;;;;;6.00;1.50;;;;;;;22.41;36.73;101273.13;16134703;19;129797;-52
2022/05/16 07:50:25;;;;;;;3.25;1.35;;;;;;;22.44;36.52;101268.97;16133958;19;131215;-52
2022/05/16 07:55:53;;;;;;;3.00;1.17;;;;;;;22.48;36.54;101263.72;16134212;19;129090;-49
2022/05/16 08:01:16;;;;;;;3.10;1.17;;;;;;;22.50;36.41;101269.88;16140442;19;129867;-49
2022/05/16 08:06:38;;;;;;;4.65;1.00;;;;;;;22.51;36.69;101268.75;16146596;19;129218;-50
2022/05/16 08:12:00;;;;;;;1.23;0.90;;;;;;;22.54;36.45;101259.84;16150432;19;130285;-52
2022/05/16 08:17:22;;;;;;;2.13;0.88;;;;;;;22.56;36.46;101277.16;16146463;19;129082;-52
2022/05/16 08:22:44;;;;;;;1.45;0.65;;;;;;;22.58;36.30;101281.38;16149800;19;128890;-55
2022/05/16 08:28:07;;;;;;;2.60;0.82;;;;;;;22.64;36.45;101290.63;16143886;19;129087;-51
2022/05/16 08:33:30;;;;;;;3.60;0.88;;;;;;;22.65;36.63;101292.28;16148443;19;129465;-53
2022/05/16 08:45:03;;;;;;;1.65;0.77;;;;;;;22.61;36.30;101307.03;16147355;19;129004;-52
2022/05/16 08:50:41;;;;;;;1.77;0.80;;;;;;;22.60;36.59;101317.34;16143969;19;129118;-48
2022/05/16 08:56:08;;;;;;;2.35;0.80;;;;;;;22.59;36.44;101327.66;16147601;19;129433;-50
2022/05/16 09:01:43;;;;;;;1.58;0.70;;;;;;;22.58;36.98;101339.94;16147999;19;128966;-49
2022/05/16 09:07:26;;;;;;;4.95;0.90;;;;;;;22.59;36.93;101344.38;16142759;19;129678;-49
2022/05/16 09:13:19;;;;;;;1.38;0.80;;;;;;;22.59;36.79;101335.19;16144390;19;128974;-54
2022/05/16 09:19:08;;;;;;;1.90;1.00;;;;;;;22.62;36.63;101350.53;16140162;19;130766;-50
2022/05/16 09:24:36;;;;;;;2.13;0.80;;;;;;;22.66;37.03;101360.09;16146235;19;129549;-53
2022/05/16 09:29:57;;;;;;;2.97;1.00;;;;;;;22.66;36.87;101360.91;16145686;19;129825;-49
2022/05/16 09:35:40;;;;;;;2.25;0.80;;;;;;;22.67;37.23;101367.34;16144810;19;129353;-54
2022/05/16 09:41:08;;;;;;;2.35;0.80;;;;;;;22.66;36.74;101382.38;16146483;19;129622;-49
2022/05/16 09:46:40;;;;;;;1.17;0.82;;;;;;;22.65;37.11;101391.84;16139678;19;131354;-48
2022/05/16 09:52:02;;;;;;;1.58;0.88;;;;;;;22.63;37.03;101389.34;16144371;19;129487;-51
2022/05/16 09:57:24;;;;;;;0.70;0.60;;;;;;;22.62;37.18;101390.44;16137768;19;129595;-52
2022/05/16 10:02:55;;;;;;;2.58;0.70;;;;;;;22.62;37.00;101401.59;16142553;19;129161;-54
2022/05/16 10:08:30;;;;;;;1.42;0.90;;;;;;;22.59;37.30;101411.31;16138617;19;129734;-51
2022/05/16 10:13:53;;;;;;;2.67;0.80;;;;;;;22.59;37.24;101422.47;16143723;19;129422;-53
2022/05/16 10:19:19;;;;;;;1.45;0.77;;;;;;;22.60;37.33;101428.91;16137428;19;130822;-53
2022/05/16 10:24:44;;;;;;;3.15;1.13;;;;;;;22.57;37.59;101444.22;16139790;19;129234;-47
2022/05/16 10:30:20;;;;;;;2.33;0.98;;;;;;;22.57;37.47;101468.47;16142696;19;131224;-49
2022/05/16 10:35:52;;;;;;;1.30;0.70;;;;;;;22.54;37.34;101480.97;16136308;19;129208;-52
2022/05/16 10:41:26;;;;;;;2.78;0.80;;;;;;;22.50;37.35;101496.53;16137072;19;129505;-53
2022/05/16 10:47:13;;;;;;;2.75;1.08;;;;;;;22.49;37.68;101503.22;16137768;19;129516;-51
2022/05/16 10:52:46;;;;;;;2.13;0.80;;;;;;;22.49;37.61;101519.09;16140599;19;129223;-54
2022/05/16 10:58:32;;;;;;;2.55;0.90;;;;;;;22.47;37.66;101526.88;16139683;19;129034;-53
2022/05/16 11:04:00;;;;;;;1.43;0.67;;;;;;;22.42;37.82;101522.91;16139065;19;129391;-54
2022/05/16 11:09:48;;;;;;;1.23;0.80;;;;;;;22.42;37.89;101539.63;16139397;19;129112;-51
2022/05/16 11:15:34;;;;;;;2.67;0.70;;;;;;;22.40;37.88;101550.19;16134908;19;129364;-52
2022/05/16 11:21:12;;;;;;;2.75;1.00;;;;;;;22.39;37.66;101544.91;16138454;19;129666;-53
2022/05/16 11:27:01;;;;;;;2.10;0.88;;;;;;;22.39;38.10;101554.13;16133998;19;129066;-53
2022/05/16 11:32:58;;;;;;;1.85;1.10;;;;;;;22.38;37.60;101554.34;16135296;19;131004;-52
2022/05/16 11:38:47;;;;;;;1.10;0.80;;;;;;;22.38;37.85;101563.56;16145250;19;128799;-50
2022/05/16 11:44:10;;;;;;;2.72;0.90;;;;;;;22.39;37.64;101553.25;16153079;19;129959;-50
2022/05/16 11:49:42;;;;;;;2.78;0.93;;;;;;;22.41;38.04;101559.44;16152418;19;131158;-53
2022/05/16 12:01:28;;;;;;;2.10;1.10;;;;;;;22.41;38.02;101563.03;16152681;19;128738;-51
2022/05/16 12:06:58;;;;;;;1.40;0.90;;;;;;;22.41;38.09;101563.03;16147694;19;131754;-50
2022/05/16 12:12:31;;;;;;;1.13;1.00;;;;;;;22.42;38.06;101564.72;16150577;19;129599;-54
2022/05/16 12:18:04;;;;;;;1.92;0.95;;;;;;;22.43;38.04;101566.41;16146343;19;128871;-50
2022/05/16 12:23:57;;;;;;;2.15;1.20;;;;;;;22.43;37.89;101572.00;16150906;19;129477;-53
2022/05/16 12:29:21;;;;;;;1.27;0.73;;;;;;;22.43;38.28;101574.78;16147435;19;129346;-49
2022/05/16 12:34:45;;;;;;;2.43;1.00;;;;;;;22.43;38.12;101577.56;16142064;19;129411;-51
2022/05/16 12:40:28;;;;;;;1.58;0.88;;;;;;;22.44;38.08;101590.41;16145594;19;130736;-51
2022/05/16 12:46:15;;;;;;;2.75;0.80;;;;;;;22.44;38.05;101593.19;16146492;19;130548;-52
2022/05/16 12:51:59;;;;;;;1.48;0.90;;;;;;;22.43;38.16;101599.88;16145533;19;129875;-50
2022/05/16 12:57:21;;;;;;;2.88;0.93;;;;;;;22.41;38.52;101599.28;16143819;19;129583;-53
2022/05/16 13:03:01;;;;;;;2.25;1.30;;;;;;;22.41;38.50;101599.28;16141174;19;129972;-50
2022/05/16 13:08:39;;;;;;;2.08;1.00;;;;;;;22.41;38.33;101602.06;16140085;19;128885;-52
2022/05/16 13:14:15;;;;;;;1.52;1.02;;;;;;;22.42;38.30;101602.94;16145947;19;129263;-50
2022/05/16 13:19:44;;;;;;;2.47;1.00;;;;;;;22.40;38.37;101600.38;16141209;19;128957;-51
2022/05/16 13:25:07;;;;;;;1.10;1.00;;;;;;;22.40;38.39;101614.31;16145019;19;128998;-50
2022/05/16 13:30:29;;;;;;;1.88;0.90;;;;;;;22.39;38.14;101601.50;16142603;19;131859;-49
2022/05/16 13:35:51;;;;;;;1.00;0.82;;;;;;;22.41;38.37;101609.59;16144562;19;129639;-50
2022/05/16 13:41:12;;;;;;;1.17;0.70;;;;;;;22.40;38.37;101613.50;16145216;19;128973;-52
2022/05/16 13:46:34;;;;;;;3.67;1.00;;;;;;;22.43;38.12;101615.78;16142233;19;128971;-52
2022/05/16 13:51:56;;;;;;;3.45;1.10;;;;;;;22.45;38.27;101610.78;16144762;19;129376;-51
2022/05/16 13:57:24;;;;;;;2.63;0.93;;;;;;;22.47;38.29;101616.09;16143093;19;128832;-50
2022/05/16 14:02:49;;;;;;;1.75;0.93;;;;;;;22.48;38.00;101613.03;16141778;19;128785;-47
2022/05/16 14:08:20;;;;;;;2.95;0.80;;;;;;;22.50;38.37;101623.97;16138770;19;129136;-51
2022/05/16 14:13:45;;;;;;;0.98;0.70;;;;;;;22.50;38.27;101629.53;16142040;19;129037;-50
2022/05/16 14:19:11;;;;;;;3.05;0.90;;;;;;;22.50;38.44;101635.13;16137768;19;129072;-52
2022/05/16 14:24:48;;;;;;;2.42;0.80;;;;;;;22.51;38.18;101631.22;16140713;19;129444;-50
2022/05/16 14:30:18;;;;;;;2.35;0.73;;;;;;;22.51;38.17;101631.22;16136345;19;129144;-51
2022/05/16 14:36:04;;;;;;;2.67;0.70;;;;;;;22.53;38.25;101642.94;16142490;19;129242;-48
2022/05/16 14:41:30;;;;;;;6.80;1.05;;;;;;;22.51;38.12;101642.38;16142224;19;129381;-52
2022/05/16 14:47:01;;;;;;;3.50;1.10;;;;;;;22.53;38.30;101649.38;16138592;19;128873;-53
2022/05/16 14:52:26;;;;;;;2.38;0.80;;;;;;;22.52;37.87;101660.81;16140736;19;129110;-51
2022/05/16 14:57:55;;;;;;;0.70;0.70;;;;;;;22.53;38.20;101662.47;16140071;19;130044;-50
2022/05/16 15:09:00;;;;;;;3.03;0.70;;;;;;;22.53;38.21;101662.47;16132865;19;131813;-52
2022/05/16 15:14:25;;;;;;;2.13;0.95;;;;;;;22.53;38.09;101659.69;16150677;19;129338;-51
2022/05/16 15:19:47;;;;;;;1.70;0.73;;;;;;;22.57;37.96;101670.09;16148390;19;129739;-48
2022/05/16 15:25:11;;;;;;;2.60;0.90;;;;;;;22.58;38.07;101668.13;16150565;19;128938;-49
2022/05/16 15:30:32;;;;;;;1.38;0.70;;;;;;;22.57;37.93;101675.66;16149612;19;129502;-52
2022/05/16 15:35:55;;;;;;;1.05;0.60;;;;;;;22.57;38.09;101685.97;16148381;19;129630;-51
2022/05/16 15:41:18;;;;;;;3.33;0.60;;;;;;;22.58;38.33;101693.22;16148254;19;129812;-47
2022/05/16 15:46:41;;;;;;;2.30;0.80;;;;;;;22.57;38.00;101685.97;16149958;19;129946;-51
2022/05/16 15:52:03;;;;;;;3.70;0.85;;;;;;;22.56;37.76;101689.84;16156569;19;129117;-52
2022/05/16 15:57:25;;;;;;;3.15;0.75;;;;;;;22.57;38.16;101681.25;16154454;19;129866;-47
2022/05/16 16:02:52;;;;;;;2.72;0.98;;;;;;;22.58;38.01;101687.66;16154914;19;129305;-50
2022/05/16 16:13:55;;;;;;;3.90;0.77;;;;;;;22.57;38.10;101680.38;16155611;19;130530;-53
2022/05/16 16:19:22;;;;;;;1.92;0.70;;;;;;;22.55;37.89;101683.44;16141739;19;129602;-48
2022/05/16 16:24:44;;;;;;;2.92;0.82;;;;;;;22.55;38.06;101686.22;16147433;19;129419;-52
2022/05/16 16:30:10;;;;;;;2.40;0.90;;;;;;;22.57;38.13;101674.81;16138323;19;129857;-48
2022/05/16 16:35:33;;;;;;;4.07;1.40;;;;;;;22.54;38.50;101667.81;16145765;19;131911;-48
2022/05/16 16:40:58;;;;;;;4.28;1.23;;;;;;;22.59;38.69;101679.03;16144609;19;129024;-50
2022/05/16 16:46:24;;;;;;;6.53;1.30;;;;;;;22.60;38.49;101665.94;16144792;19;129768;-49
2022/05/16 16:57:39;;;;;;;6.18;1.30;;;;;;;22.73;38.49;101670.28;16143918;19;128879;-51
2022/05/16 17:03:05;;;;;;;3.72;0.80;;;;;;;22.77;38.23;101679.03;16140060;19;129122;-53
2022/05/16 17:08:34;;;;;;;2.80;1.30;;;;;;;22.80;37.90;101678.47;16140230;19;129548;-52
2022/05/16 17:13:57;;;;;;;8.23;1.25;;;;;;;22.84;37.63;101702.81;16142922;19;130200;-50
2022/05/16 17:19:18;;;;;;;5.35;1.10;;;;;;;22.87;37.46;101687.53;16137568;19;129595;-51
2022/05/16 17:24:41;;;;;;;14.23;1.63;;;;;;;22.85;37.69;101690.56;16125999;19;130236;-51
2022/05/16 17:30:03;;;;;;;2.40;1.05;;;;;;;22.83;37.05;101706.72;16137369;19;129899;-52
2022/05/16 17:35:25;;;;;;;7.03;0.95;;;;;;;22.84;37.10;101705.59;16140778;19;130747;-51
2022/05/16 17:40:50;;;;;;;4.53;0.90;;;;;;;22.84;36.85;101707.56;16140223;19;130075;-54
2022/05/16 17:46:13;;;;;;;4.43;0.90;;;;;;;22.83;36.86;101705.88;16136269;19;129065;-56
2022/05/16 17:51:39;;;;;;;10.02;1.08;;;;;;;22.82;36.71;101710.63;16138725;19;130591;-56
2022/05/16 17:57:01;;;;;;;11.07;1.08;;;;;;;22.83;36.82;101728.19;16140830;19;129236;-53
2022/05/16 18:02:26;;;;;;;9.82;1.25;;;;;;;22.82;37.19;101720.94;16138566;19;129920;-52
2022/05/16 18:07:50;;;;;;;3.80;0.80;;;;;;;22.81;36.73;101716.44;16138755;19;129253;-54
2022/05/16 18:13:12;;;;;;;9.20;1.17;;;;;;;22.81;36.62;101727.59;16135382;19;129565;-48
2022/05/16 18:18:34;;;;;;;3.80;0.95;;;;;;;22.79;36.76;101738.16;16128540;19;130183;-52
2022/05/16 18:23:56;;;;;;;3.13;0.70;;;;;;;22.78;37.08;101758.78;16128458;19;129000;-50
2022/05/16 18:29:18;;;;;;;5.53;1.27;;;;;;;22.75;36.78;101757.38;16131370;19;129818;-48
2022/05/16 18:34:43;;;;;;;7.47;1.47;;;;;;;22.73;36.83;101762.34;16117683;19;130072;-49
2022/05/16 18:40:07;;;;;;;13.60;2.42;;;;;;;22.72;36.66;101778.25;16129507;19;129513;-54
2022/05/16 18:51:14;;;;;;;12.45;2.25;;;;;;;22.77;36.96;101785.03;16130679;19;129445;-56
2022/05/16 18:56:37;;;;;;;16.73;2.70;;;;;;;22.79;37.00;101800.41;16132634;19;129652;-48
2022/05/16 19:01:59;;;;;;;15.23;2.58;;;;;;;22.80;36.39;101802.09;16127704;19;130809;-54
2022/05/16 19:07:21;;;;;;;16.20;2.03;;;;;;;22.81;36.69;101806.56;16127558;19;130809;-46
2022/05/16 19:12:46;;;;;;;13.90;2.30;;;;;;;22.80;36.95;101810.47;16128296;19;130696;-57
2022/05/16 19:18:10;;;;;;;6.30;1.80;;;;;;;22.80;36.93;101813.25;16121136;19;129764;-48
2022/05/16 19:23:32;;;;;;;11.85;2.17;;;;;;;22.78;36.73;101809.00;16125504;19;129705;-51
2022/05/16 19:34:37;;;;;;;12.20;2.00;;;;;;;22.73;36.84;101827.38;16127456;19;129797;-46
2022/05/16 19:39:59;;;;;;;16.17;1.98;;;;;;;22.72;37.33;101834.03;16125537;19;130890;-49
2022/05/16 19:45:21;;;;;;;8.07;1.45;;;;;;;22.72;37.21;101833.19;16128502;19;129695;-51
2022/05/16 19:50:46;;;;;;;8.52;1.50;;;;;;;22.70;37.12;101847.38;16127479;19;129538;-47
2022/05/16 19:56:08;;;;;;;12.30;1.90;;;;;;;22.69;37.50;101861.59;16131588;19;129356;-51
2022/05/16 20:01:30;;;;;;;16.98;1.92;;;;;;;22.68;37.34;101874.69;16147045;19;131008;-46
2022/05/16 20:06:52;;;;;;;8.43;1.42;;;;;;;22.66;37.36;101874.09;16146132;19;129934;-48
2022/05/16 20:12:14;;;;;;;9.23;1.48;;;;;;;22.67;37.38;101877.72;16141929;19;130184;-50
2022/05/16 20:17:36;;;;;;;13.48;1.40;;;;;;;22.66;37.48;101878.81;16142299;19;130154;-53
2022/05/16 20:28:38;;;;;;;16.08;1.77;;;;;;;22.59;37.70;101887.34;16142437;19;129430;-50
2022/05/16 20:34:00;;;;;;;14.10;2.15;;;;;;;22.57;37.89;101895.13;16146731;19;129552;-52
2022/05/16 20:39:22;;;;;;;8.70;1.25;;;;;;;22.54;37.89;101898.41;16139146;19;130096;-51
2022/05/16 20:44:44;;;;;;;14.05;1.73;;;;;;;22.52;37.85;101903.41;16139811;19;131636;-51
2022/05/16 20:50:07;;;;;;;21.13;1.80;;;;;;;22.50;37.57;101908.38;16137176;19;130826;-50
2022/05/16 20:55:34;;;;;;;9.43;1.25;;;;;;;22.48;37.84;101902.19;16129180;19;130666;-49
2022/05/16 21:00:55;;;;;;;9.65;1.65;;;;;;;22.46;37.78;101910.81;16123159;19;129906;-51
2022/05/16 21:06:18;;;;;;;5.45;1.00;;;;;;;22.44;38.01;101904.66;16124448;19;131541;-50
2022/05/16 21:11:39;;;;;;;8.20;0.90;;;;;;;22.42;37.77;101915.19;16137599;19;130344;-48
2022/05/16 21:17:01;;;;;;;4.70;1.00;;;;;;;22.42;37.82;101923.56;16136618;19;129478;-52
2022/05/16 21:22:23;;;;;;;7.82;1.27;;;;;;;22.39;37.79;101919.34;16143394;19;129477;-49
2022/05/16 21:27:45;;;;;;;7.82;1.00;;;;;;;22.37;38.03;101915.94;16143252;19;128983;-53
2022/05/16 21:33:06;;;;;;;6.18;1.00;;;;;;;22.35;38.20;101909.75;16141317;19;131174;-51
2022/05/16 21:38:29;;;;;;;4.35;0.90;;;;;;;22.34;37.94;101904.44;16139109;19;128937;-50
2022/05/16 21:49:33;;;;;;;4.15;0.95;;;;;;;22.31;37.67;101899.34;16123344;19;130463;-49
2022/05/16 21:54:54;;;;;;;2.92;0.50;;;;;;;22.29;37.99;101905.16;16127603;19;129918;-52
2022/05/16 22:00:27;;;;;;;5.20;0.65;;;;;;;22.29;38.02;101899.59;16127495;19;129636;-52
2022/05/16 22:05:52;;;;;;;6.25;0.88;;;;;;;22.27;38.10;101907.38;16135359;19;129426;-48
2022/05/16 22:11:14;;;;;;;4.05;0.60;;;;;;;22.25;38.18;101907.59;16135146;19;129348;-49
2022/05/16 22:16:35;;;;;;;2.85;0.70;;;;;;;22.25;37.85;101912.34;16136599;19;133019;-48
2022/05/16 22:21:57;;;;;;;4.25;0.60;;;;;;;22.23;37.85;101903.38;16139212;19;131272;-50
2022/05/16 22:27:19;;;;;;;1.55;0.50;;;;;;;22.22;37.88;101910.03;16133843;19;130493;-50
2022/05/16 22:32:41;;;;;;;3.47;0.50;;;;;;;22.21;37.72;101911.13;16134695;19;129837;-49
2022/05/16 22:38:03;;;;;;;2.20;0.50;;;;;;;22.20;37.90;101912.19;16130750;19;129758;-53
2022/05/16 22:43:25;;;;;;;1.80;0.40;;;;;;;22.18;37.84;101901.31;16132658;19;130514;-51
2022/05/16 22:48:47;;;;;;;1.27;0.50;;;;;;;22.18;37.94;101908.81;16130665;19;130176;-51
2022/05/16 22:54:09;;;;;;;1.05;0.30;;;;;;;22.17;37.91;101915.47;16130213;19;129959;-52
2022/05/16 22:59:31;;;;;;;0.88;0.40;;;;;;;22.16;38.10;101919.34;16130205;19;128987;-52
2022/05/16 23:04:53;;;;;;;1.25;0.43;;;;;;;22.16;37.66;101924.91;16126070;19;129764;-52
2022/05/16 23:10:16;;;;;;;1.48;0.47;;;;;;;22.13;37.89;101924.34;16128546;19;129892;-52
2022/05/16 23:15:38;;;;;;;0.90;0.38;;;;;;;22.12;37.67;101925.44;16129139;19;130638;-53
2022/05/16 23:21:00;;;;;;;4.65;0.80;;;;;;;22.12;38.00;101930.16;16130423;19;130535;-51
2022/05/16 23:26:22;;;;;;;2.50;0.30;;;;;;;22.10;38.05;101927.63;16133560;19;129528;-53
2022/05/16 23:31:43;;;;;;;0.98;0.40;;;;;;;22.10;37.57;101924.81;16133533;19;128885;-51
2022/05/16 23:37:05;;;;;;;0.95;0.25;;;;;;;22.10;38.16;101929.53;16141977;19;130571;-50
2022/05/16 23:42:27;;;;;;;1.27;0.30;;;;;;;22.10;37.68;101929.53;16144536;19;130288;-52
2022/05/16 23:47:49;;;;;;;0.88;0.47;;;;;;;22.08;37.99;101932.59;16142775;19;130438;-50
2022/05/16 23:53:11;;;;;;;1.52;0.20;;;;;;;22.06;38.01;101931.97;16143040;19;130507;-50
2022/05/16 23:58:33;;;;;;;2.17;0.50;;;;;;;22.06;37.99;101920.84;16137262;19;130620;-49
